createdAt,value
2022-09-17T00:01:31.326Z,99999.91
2022-09-17T00:04:03.975Z,99996.44
2022-09-17T00:06:35.179Z,99998.19
2022-09-17T00:09:04.142Z,99973.50
2022-09-17T00:11:34.083Z,99998.03
2022-09-17T00:14:04.541Z,100003.38
2022-09-17T00:16:37.136Z,100001.38
2022-09-17T00:19:06.314Z,100002.31
2022-09-17T00:21:35.711Z,100000.50
2022-09-17T00:24:07.282Z,100004.34
2022-09-17T00:26:36.718Z,100011.53
2022-09-17T00:29:05.493Z,100007.25
2022-09-17T00:31:33.942Z,100003.88
2022-09-17T00:34:03.637Z,100018.16
2022-09-17T00:36:32.148Z,100016.56
2022-09-17T00:39:01.542Z,100013.25
2022-09-17T00:41:31.936Z,100017.13
2022-09-17T00:44:01.065Z,100023.38
2022-09-17T00:46:36.065Z,100021.78
2022-09-17T00:49:07.100Z,100020.03
2022-09-17T00:51:38.231Z,100018.38
2022-09-17T00:54:10.723Z,100022.97
2022-09-17T00:56:43.478Z,100024.72
2022-09-17T00:59:11.784Z,100022.19
2022-09-17T01:01:39.769Z,100023.91
2022-09-17T01:04:07.844Z,100020.38
2022-09-17T01:06:43.324Z,100022.25
2022-09-17T01:09:27.742Z,100015.31
2022-09-17T01:12:19.092Z,100018.19
2022-09-17T01:15:00.249Z,100027.19
2022-09-17T01:17:36.865Z,100031.63
2022-09-17T01:20:42.170Z,100034.38
2022-09-17T01:23:38.407Z,100025.78
2022-09-17T01:26:29.120Z,100028.44
2022-09-17T01:29:09.003Z,100027.50
2022-09-17T01:31:49.104Z,100025.78
2022-09-17T01:34:24.259Z,100019.63
2022-09-17T01:37:04.568Z,100028.59
2022-09-17T01:39:43.312Z,100026.91
2022-09-17T01:42:19.808Z,100030.34
2022-09-17T01:44:56.456Z,100028.81
2022-09-17T01:47:30.988Z,100025.38
2022-09-17T01:50:05.374Z,100010.13
2022-09-17T01:52:36.928Z,100035.28
2022-09-17T01:55:08.650Z,100037.09
2022-09-17T01:57:41.375Z,100040.75
2022-09-17T02:00:13.537Z,100034.69
2022-09-17T02:02:47.630Z,100040.22
2022-09-17T02:05:20.883Z,100046.59
2022-09-17T02:07:53.446Z,100041.19
2022-09-17T02:12:58.006Z,100052.06
2022-09-17T02:15:31.585Z,100043.38
2022-09-17T02:18:07.024Z,100047.91
2022-09-17T02:20:42.454Z,100043.63
2022-09-17T02:23:16.639Z,100044.75
2022-09-17T02:25:51.216Z,100043.06
2022-09-17T02:28:25.343Z,100058.06
2022-09-17T02:30:53.326Z,100059.84
2022-09-17T02:33:24.097Z,100061.59
2022-09-17T02:35:52.304Z,100063.38
2022-09-17T02:38:26.357Z,100054.28
2022-09-17T02:41:06.862Z,100058.59
2022-09-17T02:43:42.976Z,100050.66
2022-09-17T02:46:29.863Z,100055.00
2022-09-17T02:49:17.658Z,100049.81
2022-09-17T02:51:53.978Z,100054.22
2022-09-17T02:54:30.220Z,100048.81
2022-09-17T02:57:08.709Z,100050.56
2022-09-17T02:59:42.507Z,100047.06
2022-09-17T03:02:19.166Z,100042.31
2022-09-17T03:04:50.653Z,100035.25
2022-09-17T03:07:20.808Z,100036.91
2022-09-17T03:09:48.800Z,100032.31
2022-09-17T03:12:17.732Z,100035.09
2022-09-17T03:14:45.688Z,100038.47
2022-09-17T03:17:14.920Z,100043.81
2022-09-17T03:19:42.876Z,100043.81
2022-09-17T03:22:12.542Z,100053.41
2022-09-17T03:24:40.662Z,100051.66
2022-09-17T03:27:08.628Z,100044.47
2022-09-17T03:29:36.569Z,100048.75
2022-09-17T03:32:05.424Z,100036.41
2022-09-17T03:34:33.496Z,100045.28
2022-09-17T03:37:02.282Z,100054.13
2022-09-17T03:39:31.792Z,100058.69
2022-09-17T03:41:59.709Z,100057.84
2022-09-17T03:44:27.626Z,100057.13
2022-09-17T03:46:55.721Z,100048.31
2022-09-17T03:49:24.860Z,100058.19
2022-09-17T03:51:52.890Z,100061.09
2022-09-17T03:54:21.050Z,100063.78
2022-09-17T03:56:50.509Z,100063.72
2022-09-17T03:59:18.473Z,100061.78
2022-09-17T04:01:46.599Z,100065.19
2022-09-17T04:04:14.582Z,100063.25
2022-09-17T04:06:42.520Z,100060.28
2022-09-17T04:09:10.589Z,100060.03
2022-09-17T04:11:38.540Z,100057.16
2022-09-17T04:14:07.826Z,100046.44
2022-09-17T04:16:36.362Z,100058.78
2022-09-17T04:19:04.595Z,100060.53
2022-09-17T04:21:32.555Z,100053.38
2022-09-17T04:24:00.590Z,100051.50
2022-09-17T04:26:28.528Z,100061.38
2022-09-17T04:28:56.761Z,100056.84
2022-09-17T04:31:27.155Z,100066.59
2022-09-17T04:33:55.219Z,100069.25
2022-09-17T04:36:23.171Z,100077.25
2022-09-17T04:38:51.244Z,100087.00
2022-09-17T04:41:19.178Z,100080.78
2022-09-17T04:43:47.355Z,100070.25
2022-09-17T04:46:16.863Z,100079.31
2022-09-17T04:48:46.275Z,100080.38
2022-09-17T04:51:14.272Z,100078.56
2022-09-17T04:53:42.280Z,100076.16
2022-09-17T04:56:10.229Z,100079.75
2022-09-17T04:58:38.183Z,100076.34
2022-09-17T05:01:06.456Z,100073.78
2022-09-17T05:03:34.539Z,100080.81
2022-09-17T05:06:03.897Z,100085.53
2022-09-17T05:08:31.905Z,100081.25
2022-09-17T05:10:59.835Z,100091.16
2022-09-17T05:13:27.809Z,100084.09
2022-09-17T05:15:56.624Z,100084.28
2022-09-17T05:18:25.337Z,100080.81
2022-09-17T05:20:53.559Z,100084.41
2022-09-17T05:23:22.865Z,100082.56
2022-09-17T05:25:50.823Z,100085.16
2022-09-17T05:28:18.808Z,100087.75
2022-09-17T05:30:46.763Z,100092.28
2022-09-17T05:33:14.751Z,100097.47
2022-09-17T05:35:44.113Z,100102.06
2022-09-17T05:38:12.122Z,100093.94
2022-09-17T05:40:41.516Z,100101.88
2022-09-17T05:43:11.110Z,100116.97
2022-09-17T05:45:39.702Z,100109.69
2022-09-17T05:48:10.740Z,100104.19
2022-09-17T05:50:38.835Z,100112.88
2022-09-17T05:53:08.232Z,100120.75
2022-09-17T05:55:36.252Z,100116.09
2022-09-17T05:58:12.501Z,100113.56
2022-09-17T06:00:41.026Z,100116.22
2022-09-17T06:03:09.867Z,100112.88
2022-09-17T06:05:37.949Z,100119.06
2022-09-17T06:08:06.562Z,100123.59
2022-09-17T06:10:37.191Z,100115.47
2022-09-17T06:13:05.234Z,100116.38
2022-09-17T06:15:34.617Z,100118.97
2022-09-17T06:18:02.579Z,100125.28
2022-09-17T06:20:30.533Z,100124.41
2022-09-17T06:22:58.714Z,100130.81
2022-09-17T06:25:27.427Z,100125.53
2022-09-17T06:27:55.423Z,100129.06
2022-09-17T06:30:23.499Z,100135.38
2022-09-17T06:32:52.893Z,100146.09
2022-09-17T06:35:20.936Z,100142.06
2022-09-17T06:37:48.952Z,100146.41
2022-09-17T06:40:17.764Z,100153.53
2022-09-17T06:42:45.858Z,100152.84
2022-09-17T06:45:16.788Z,100152.84
2022-09-17T06:47:45.177Z,100152.09
2022-09-17T06:50:14.686Z,100146.56
2022-09-17T06:52:49.242Z,100140.19
2022-09-17T06:55:17.432Z,100145.41
2022-09-17T06:57:45.700Z,100141.56
2022-09-17T07:00:15.548Z,100140.44
2022-09-17T07:02:43.530Z,100149.53
2022-09-17T07:05:11.490Z,100147.44
2022-09-17T07:07:41.160Z,100138.06
2022-09-17T07:10:09.762Z,100145.41
2022-09-17T07:12:42.921Z,100139.03
2022-09-17T07:15:13.860Z,100133.63
2022-09-17T07:17:42.634Z,100155.22
2022-09-17T07:20:11.619Z,100135.59
2022-09-17T07:22:41.039Z,100139.56
2022-09-17T07:25:10.086Z,100133.00
2022-09-17T07:27:38.075Z,100152.06
2022-09-17T07:30:07.150Z,100143.34
2022-09-17T07:32:35.122Z,100144.38
2022-09-17T07:35:03.594Z,100139.16
2022-09-17T07:37:31.602Z,100149.81
2022-09-17T07:40:00.970Z,100145.56
2022-09-17T07:42:28.994Z,100153.44
2022-09-17T07:45:01.283Z,100151.34
2022-09-17T07:47:30.088Z,100152.34
2022-09-17T07:49:58.025Z,100152.59
2022-09-17T07:52:26.040Z,100151.69
2022-09-17T07:54:54.005Z,100147.66
2022-09-17T07:57:23.354Z,100153.94
2022-09-17T07:59:51.345Z,100156.47
2022-09-17T08:02:24.132Z,100151.06
2022-09-17T08:04:52.541Z,100156.28
2022-09-17T08:07:20.560Z,100156.75
2022-09-17T08:09:48.537Z,100147.56
2022-09-17T08:12:18.283Z,100139.91
2022-09-17T08:14:47.598Z,100145.72
2022-09-17T08:17:15.754Z,100147.13
2022-09-17T08:19:43.724Z,100132.41
2022-09-17T08:22:11.899Z,100138.41
2022-09-17T08:24:39.894Z,100126.69
2022-09-17T08:27:07.873Z,100124.75
2022-09-17T08:29:35.821Z,100122.66
2022-09-17T08:32:05.616Z,100122.97
2022-09-17T08:34:33.691Z,100122.72
2022-09-17T08:37:02.892Z,100121.91
2022-09-17T08:39:30.846Z,100118.22
2022-09-17T08:42:10.435Z,100115.25
2022-09-17T08:44:42.879Z,100114.38
2022-09-17T08:47:18.489Z,100118.34
2022-09-17T08:49:51.765Z,100108.88
2022-09-17T08:52:58.156Z,100108.25
2022-09-17T08:55:35.190Z,100105.66
2022-09-17T08:58:24.978Z,100122.19
2022-09-17T09:00:58.776Z,100119.56
2022-09-17T09:03:43.560Z,100111.94
2022-09-17T09:06:13.013Z,100132.88
2022-09-17T09:08:44.229Z,100119.22
2022-09-17T09:11:16.273Z,100127.13
2022-09-17T09:13:48.107Z,100118.75
2022-09-17T09:16:19.550Z,100109.47
2022-09-17T09:18:53.293Z,100123.47
2022-09-17T09:21:28.089Z,100110.78
2022-09-17T09:23:58.963Z,100104.56
2022-09-17T09:26:41.014Z,100117.16
2022-09-17T09:29:22.976Z,100120.97
2022-09-17T09:32:16.197Z,100104.78
2022-09-17T09:34:48.972Z,100126.78
2022-09-17T09:37:21.030Z,100107.00
2022-09-17T09:39:52.296Z,100113.59
2022-09-17T09:42:28.365Z,100115.31
2022-09-17T09:45:04.151Z,100118.66
2022-09-17T09:47:53.522Z,100117.28
2022-09-17T09:51:01.795Z,100113.66
2022-09-17T09:53:32.632Z,100123.06
2022-09-17T09:56:15.197Z,100119.66
2022-09-17T09:58:43.222Z,100111.91
2022-09-17T10:01:15.608Z,100121.47
2022-09-17T10:03:46.113Z,100137.25
2022-09-17T10:06:17.239Z,100119.88
2022-09-17T10:09:14.301Z,100122.88
2022-09-17T10:11:42.424Z,100117.44
2022-09-17T10:14:32.228Z,100118.25
2022-09-17T10:17:15.079Z,100108.50
2022-09-17T10:19:43.767Z,100104.41
2022-09-17T10:22:32.789Z,100106.31
2022-09-17T10:25:02.553Z,100110.94
2022-09-17T10:27:31.540Z,100121.97
2022-09-17T10:30:14.775Z,100105.91
2022-09-17T10:32:42.950Z,100098.56
2022-09-17T10:35:27.492Z,100099.56
2022-09-17T10:37:56.905Z,100101.75
2022-09-17T10:40:30.682Z,100107.75
2022-09-17T10:43:23.718Z,100095.56
2022-09-17T10:45:59.405Z,100099.34
2022-09-17T10:48:32.298Z,100098.88
2022-09-17T10:51:02.990Z,100098.13
2022-09-17T10:53:32.605Z,100091.44
2022-09-17T10:56:11.731Z,100098.06
2022-09-17T10:58:53.913Z,100080.88
2022-09-17T11:01:38.137Z,100086.56
2022-09-17T11:04:30.557Z,100096.88
2022-09-17T11:07:26.748Z,100086.28
2022-09-17T11:10:03.918Z,100087.75
2022-09-17T11:12:46.826Z,100080.72
2022-09-17T11:15:30.964Z,100076.38
2022-09-17T11:18:25.489Z,100059.91
2022-09-17T11:21:08.541Z,100072.28
2022-09-17T11:23:54.878Z,100075.69
2022-09-17T11:26:33.653Z,100087.38
2022-09-17T11:29:16.912Z,100086.16
2022-09-17T11:31:57.361Z,100085.06
2022-09-17T11:34:32.923Z,100080.84
2022-09-17T11:37:06.811Z,100079.31
2022-09-17T11:39:42.403Z,100076.53
2022-09-17T11:42:19.707Z,100084.28
2022-09-17T11:44:53.905Z,100070.28
2022-09-17T11:47:26.882Z,100050.16
2022-09-17T11:50:01.589Z,100075.41
2022-09-17T11:52:36.184Z,100067.63
2022-09-17T11:55:10.842Z,100075.56
2022-09-17T11:57:43.117Z,100069.91
2022-09-17T12:00:17.889Z,100069.44
2022-09-17T12:02:51.416Z,100069.81
2022-09-17T12:05:22.861Z,100063.31
2022-09-17T12:07:57.713Z,100064.78
2022-09-17T12:10:44.697Z,100059.56
2022-09-17T12:13:24.362Z,100053.94
2022-09-17T12:15:58.599Z,100054.19
2022-09-17T12:18:41.505Z,100045.09
2022-09-17T12:21:14.887Z,100048.44
2022-09-17T12:23:49.333Z,100054.91
2022-09-17T12:26:33.585Z,100040.78
2022-09-17T12:29:12.077Z,100047.13
2022-09-17T12:31:47.187Z,100055.97
2022-09-17T12:34:33.068Z,100043.63
2022-09-17T12:37:09.928Z,100048.00
2022-09-17T12:39:56.922Z,100033.97
2022-09-17T12:42:40.107Z,100032.06
2022-09-17T12:45:22.316Z,100034.38
2022-09-17T12:48:17.453Z,100030.03
2022-09-17T12:50:56.222Z,100034.50
2022-09-17T12:53:30.192Z,100035.16
2022-09-17T12:56:11.446Z,100031.16
2022-09-17T12:58:56.385Z,100039.38
2022-09-17T13:01:32.026Z,100034.72
2022-09-17T13:04:12.934Z,100028.31
2022-09-17T13:07:13.438Z,100032.03
2022-09-17T13:10:02.519Z,100024.81
2022-09-17T13:12:38.421Z,100017.91
2022-09-17T13:15:31.825Z,100024.84
2022-09-17T13:18:27.450Z,100029.00
2022-09-17T13:21:04.369Z,100004.41
2022-09-17T13:23:40.339Z,99990.09
2022-09-17T13:26:10.062Z,99992.50
2022-09-17T13:28:46.956Z,99994.56
2022-09-17T13:31:21.848Z,99997.69
2022-09-17T13:33:53.387Z,100013.09
2022-09-17T13:36:43.075Z,100025.59
2022-09-17T13:39:32.530Z,100038.38
2022-09-17T13:42:06.265Z,100040.09
2022-09-17T13:44:36.424Z,100040.56
2022-09-17T13:47:18.730Z,100038.78
2022-09-17T13:49:55.496Z,100033.06
2022-09-17T13:52:35.773Z,100040.72
2022-09-17T13:55:05.221Z,100042.16
2022-09-17T13:57:35.424Z,100048.13
2022-09-17T14:00:03.595Z,100054.16
2022-09-17T14:02:38.320Z,100055.94
2022-09-17T14:05:30.830Z,100050.34
2022-09-17T14:08:28.627Z,100051.72
2022-09-17T14:11:00.805Z,100056.66
2022-09-17T14:13:46.489Z,100048.16
2022-09-17T14:16:37.096Z,100045.56
2022-09-17T14:19:34.127Z,100043.41
2022-09-17T14:22:16.486Z,100043.34
2022-09-17T14:24:51.254Z,100056.66
2022-09-17T14:27:31.799Z,100078.31
2022-09-17T14:30:15.432Z,100082.13
2022-09-17T14:32:49.820Z,100084.81
2022-09-17T14:35:22.577Z,100087.78
2022-09-17T14:37:56.964Z,100086.50
2022-09-17T14:40:26.062Z,100098.81
2022-09-17T14:42:56.992Z,100091.25
2022-09-17T14:45:29.374Z,100107.22
2022-09-17T14:48:20.046Z,100100.72
2022-09-17T14:50:48.013Z,100094.22
2022-09-17T14:53:21.056Z,100103.06
2022-09-17T14:55:51.674Z,100098.69
2022-09-17T14:58:36.317Z,100094.66
2022-09-17T15:01:04.951Z,100100.06
2022-09-17T15:03:32.909Z,100087.78
2022-09-17T15:06:00.987Z,100091.31
2022-09-17T15:08:30.431Z,100088.78
2022-09-17T15:11:01.347Z,100097.19
2022-09-17T15:13:31.360Z,100104.00
2022-09-17T15:16:03.042Z,100097.63
2022-09-17T15:18:38.609Z,100100.16
2022-09-17T15:21:22.216Z,100090.75
2022-09-17T15:23:56.597Z,100093.38
2022-09-17T15:26:29.215Z,100093.78
2022-09-17T15:28:58.622Z,100099.22
2022-09-17T15:31:30.203Z,100101.75
2022-09-17T15:34:00.950Z,100100.66
2022-09-17T15:36:31.590Z,100106.53
2022-09-17T15:39:00.943Z,100112.06
2022-09-17T15:41:31.868Z,100112.81
2022-09-17T15:44:29.920Z,100116.16
2022-09-17T15:47:34.404Z,100124.38
2022-09-17T15:50:14.664Z,100129.75
2022-09-17T15:52:43.002Z,100118.56
2022-09-17T15:55:41.418Z,100139.88
2022-09-17T15:58:23.645Z,100138.97
2022-09-17T16:01:47.395Z,100130.19
2022-09-17T16:04:22.963Z,100136.44
2022-09-17T16:06:55.956Z,100129.22
2022-09-17T16:09:42.681Z,100141.94
2022-09-17T16:12:14.302Z,100137.69
2022-09-17T16:14:50.428Z,100137.59
2022-09-17T16:17:33.020Z,100135.91
2022-09-17T16:20:08.773Z,100152.97
2022-09-17T16:22:36.829Z,100155.72
2022-09-17T16:25:05.448Z,100166.41
2022-09-17T16:27:36.995Z,100171.94
2022-09-17T16:30:09.578Z,100171.19
2022-09-17T16:32:37.587Z,100173.09
2022-09-17T16:35:07.546Z,100165.13
2022-09-17T16:37:35.529Z,100183.06
2022-09-17T16:40:03.696Z,100172.50
2022-09-17T16:42:32.095Z,100177.13
2022-09-17T16:45:01.103Z,100173.44
2022-09-17T16:47:31.301Z,100170.75
2022-09-17T16:49:59.298Z,100178.00
2022-09-17T16:52:28.634Z,100185.94
2022-09-17T16:54:56.555Z,100177.25
2022-09-17T16:57:24.705Z,100182.47
2022-09-17T16:59:52.709Z,100180.91
2022-09-17T17:02:20.656Z,100192.31
2022-09-17T17:04:48.604Z,100186.53
2022-09-17T17:07:16.754Z,100192.59
2022-09-17T17:09:46.110Z,100195.28
2022-09-17T17:12:14.041Z,100194.34
2022-09-17T17:14:41.992Z,100195.28
2022-09-17T17:17:10.228Z,100206.91
2022-09-17T17:19:38.931Z,100198.97
2022-09-17T17:22:08.581Z,100193.75
2022-09-17T17:24:36.582Z,100198.25
2022-09-17T17:27:06.727Z,100196.59
2022-09-17T17:29:35.329Z,100201.19
2022-09-17T17:32:03.980Z,100201.19
2022-09-17T17:34:32.442Z,100212.84
2022-09-17T17:37:00.495Z,100216.75
2022-09-17T17:39:29.047Z,100212.41
2022-09-17T17:41:56.986Z,100213.53
2022-09-17T17:44:26.352Z,100219.81
2022-09-17T17:46:54.377Z,100225.03
2022-09-17T17:49:22.365Z,100223.31
2022-09-17T17:51:50.705Z,100219.81
2022-09-17T17:54:18.670Z,100222.63
2022-09-17T17:56:46.614Z,100219.28
2022-09-17T17:59:14.573Z,100227.53
2022-09-17T18:01:44.264Z,100226.81
2022-09-17T18:04:12.380Z,100230.53
2022-09-17T18:06:40.418Z,100240.63
2022-09-17T18:09:08.536Z,100240.69
2022-09-17T18:11:36.926Z,100240.97
2022-09-17T18:14:04.935Z,100242.03
2022-09-17T18:16:33.387Z,100237.56
2022-09-17T18:19:02.803Z,100243.03
2022-09-17T18:21:30.954Z,100252.00
2022-09-17T18:23:59.263Z,100238.97
2022-09-17T18:26:28.580Z,100257.53
2022-09-17T18:28:56.772Z,100252.44
2022-09-17T18:31:27.202Z,100252.44
2022-09-17T18:33:59.614Z,100255.25
2022-09-17T18:36:30.753Z,100258.88
2022-09-17T18:39:16.669Z,100258.88
2022-09-17T18:41:49.779Z,100269.53
2022-09-17T18:44:19.005Z,100262.69
2022-09-17T18:46:47.976Z,100272.56
2022-09-17T18:49:16.253Z,100277.91
2022-09-17T18:51:45.633Z,100279.53
2022-09-17T18:54:13.751Z,100274.25
2022-09-17T18:56:42.452Z,100284.81
2022-09-17T18:59:11.246Z,100283.84
2022-09-17T19:01:39.284Z,100287.47
2022-09-17T19:04:08.386Z,100284.06
2022-09-17T19:06:36.614Z,100284.88
2022-09-17T19:09:06.839Z,100288.53
2022-09-17T19:11:35.544Z,100288.34
2022-09-17T19:14:03.618Z,100292.75
2022-09-17T19:16:31.619Z,100299.09
2022-09-17T19:18:59.663Z,100300.66
2022-09-17T19:21:27.673Z,100301.75
2022-09-17T19:23:55.697Z,100296.25
2022-09-17T19:26:27.025Z,100298.09
2022-09-17T19:28:57.821Z,100296.34
2022-09-17T19:31:27.057Z,100304.28
2022-09-17T19:33:55.866Z,100300.91
2022-09-17T19:36:23.998Z,100305.41
2022-09-17T19:38:52.012Z,100307.28
2022-09-17T19:41:23.061Z,100315.44
2022-09-17T19:43:54.078Z,100310.25
2022-09-17T19:46:24.098Z,100316.56
2022-09-17T19:48:53.659Z,100319.41
2022-09-17T19:51:25.142Z,100319.59
2022-09-17T19:53:53.755Z,100323.19
2022-09-17T19:56:23.174Z,100323.31
2022-09-17T19:58:53.043Z,100330.44
2022-09-17T20:01:21.484Z,100324.53
2022-09-17T20:03:49.631Z,100334.34
2022-09-17T20:06:20.684Z,100329.03
2022-09-17T20:08:50.057Z,100327.41
2022-09-17T20:11:22.461Z,100339.03
2022-09-17T20:13:56.763Z,100344.38
2022-09-17T20:16:24.817Z,100345.34
2022-09-17T20:18:53.200Z,100339.06
2022-09-17T20:21:22.925Z,100322.78
2022-09-17T20:23:51.493Z,100348.81
2022-09-17T20:26:19.709Z,100335.72
2022-09-17T20:28:49.010Z,100341.31
2022-09-17T20:31:21.177Z,100339.66
2022-09-17T20:33:51.840Z,100341.56
2022-09-17T20:36:21.905Z,100345.22
2022-09-17T20:41:40.073Z,100349.88
2022-09-17T20:44:08.710Z,100353.53
2022-09-17T20:46:38.172Z,100350.13
2022-09-17T20:49:06.199Z,100358.00
2022-09-17T20:51:34.233Z,100363.47
2022-09-17T20:54:02.881Z,100362.44
2022-09-17T20:56:33.270Z,100364.25
2022-09-17T20:59:08.841Z,100368.56
2022-09-17T21:01:38.431Z,100366.81
2022-09-17T21:04:08.173Z,100373.84
2022-09-17T21:06:38.417Z,100374.81
2022-09-17T21:09:07.280Z,100374.88
2022-09-17T21:11:35.615Z,100383.72
2022-09-17T21:14:04.030Z,100375.72
2022-09-17T21:16:32.416Z,100376.31
2022-09-17T21:19:03.936Z,100379.00
2022-09-17T21:21:34.375Z,100382.75
2022-09-17T21:24:04.534Z,100383.53
2022-09-17T21:26:34.944Z,100372.16
2022-09-17T21:29:02.954Z,100393.31
2022-09-17T21:31:33.464Z,100392.50
2022-09-17T21:34:05.351Z,100394.19
2022-09-17T21:36:36.809Z,100388.28
2022-09-17T21:39:07.089Z,100392.69
2022-09-17T21:41:39.927Z,100398.94
2022-09-17T21:44:10.674Z,100390.13
2022-09-17T21:46:39.574Z,100392.75
2022-09-17T21:49:09.883Z,100386.59
2022-09-17T21:51:39.547Z,100388.38
2022-09-17T21:54:09.498Z,100384.88
2022-09-17T21:56:38.003Z,100360.50
2022-09-17T21:59:07.628Z,100384.75
2022-09-17T22:01:39.478Z,100390.13
2022-09-17T22:04:10.617Z,100389.31
2022-09-17T22:06:38.632Z,100390.03
2022-09-17T22:09:07.923Z,100377.66
2022-09-17T22:11:38.321Z,100392.69
2022-09-17T22:14:10.718Z,100357.66
2022-09-17T22:16:40.703Z,100394.31
2022-09-17T22:19:11.786Z,100400.41
2022-09-17T22:21:41.290Z,100402.22
2022-09-17T22:24:10.741Z,100393.44
2022-09-17T22:26:40.974Z,100387.25
2022-09-17T22:29:12.148Z,100397.13
2022-09-17T22:31:40.506Z,100394.66
2022-09-17T22:34:10.521Z,100391.13
2022-09-17T22:36:39.486Z,100389.19
2022-09-17T22:39:07.939Z,100386.75
2022-09-17T22:41:39.159Z,100382.41
2022-09-17T22:44:08.681Z,100385.00
2022-09-17T22:46:39.227Z,100386.94
2022-09-17T22:49:07.959Z,100387.06
2022-09-17T22:51:38.156Z,100381.00
2022-09-17T22:54:07.119Z,100381.78
2022-09-17T22:56:36.584Z,100364.47
2022-09-17T22:59:05.139Z,100384.59
2022-09-17T23:01:36.089Z,100381.19
2022-09-17T23:04:05.613Z,100385.59
2022-09-17T23:06:36.228Z,100376.88
2022-09-17T23:09:06.175Z,100379.31
2022-09-17T23:11:37.416Z,100375.91
2022-09-17T23:14:08.518Z,100373.22
2022-09-17T23:16:37.970Z,100362.78
2022-09-17T23:19:05.911Z,100362.78
2022-09-17T23:21:33.990Z,100337.66
2022-09-17T23:24:03.526Z,100356.81
2022-09-17T23:26:33.149Z,100355.09
2022-09-17T23:29:05.016Z,100363.38
2022-09-17T23:31:35.664Z,100369.63
2022-09-17T23:34:05.308Z,100376.72
2022-09-17T23:36:34.901Z,100371.56
2022-09-17T23:39:03.198Z,100369.09
2022-09-17T23:41:34.050Z,100362.88
2022-09-17T23:44:04.316Z,100357.97
2022-09-17T23:46:34.533Z,100360.22
2022-09-17T23:49:03.144Z,100366.41
2022-09-17T23:51:32.457Z,100358.31
2022-09-17T23:54:00.997Z,100366.38
2022-09-17T23:56:29.809Z,100374.31
2022-09-17T23:59:01.568Z,100368.13
